Time;durP1;ratioP1;P1;durP2;ratioP2;P2;SDS_P1;SDS_P2;PMS_P1;PMS_P2;Temp;Humidity;BMP_temperature;BMP_pressure;BME280_temperature;BME280_humidity;BME280_pressure;Samples;Min_cycle;Max_cycle;Signal;HPM_P1;HPM_P2
2021/09/20 00:02:25;;;;;;;4.42;1.12;;;;;;;9.65;76.55;98445.33;1755374;80;21037;-41
2021/09/20 00:04:53;;;;;;;3.12;1.12;;;;;;;9.60;76.65;98435.63;1689469;83;20973;-41
2021/09/20 00:07:21;;;;;;;1.70;1.00;;;;;;;9.58;76.59;98435.82;1687799;84;21480;-41
2021/09/20 00:09:48;;;;;;;1.02;0.90;;;;;;;9.59;76.75;98440.06;1763640;80;20954;-41
2021/09/20 00:12:14;;;;;;;2.10;1.07;;;;;;;9.56;76.71;98430.78;1742946;80;21076;-41
2021/09/20 00:14:42;;;;;;;4.08;1.07;;;;;;;9.54;76.69;98432.28;1694150;83;21047;-41
2021/09/20 00:17:09;;;;;;;1.10;1.00;;;;;;;9.49;76.86;98433.98;1679852;84;21144;-41
2021/09/20 00:19:37;;;;;;;1.10;1.00;;;;;;;9.46;77.14;98427.98;1747001;80;21089;-41
2021/09/20 00:22:04;;;;;;;1.70;1.00;;;;;;;9.44;77.31;98437.06;1764337;80;20938;-41
2021/09/20 00:24:32;;;;;;;1.52;0.88;;;;;;;9.45;77.18;98437.23;1742878;81;21017;-41
2021/09/20 00:27:00;;;;;;;1.17;0.90;;;;;;;9.45;77.17;98437.23;1742170;80;21029;-41
2021/09/20 00:29:28;;;;;;;1.98;1.07;;;;;;;9.48;77.19;98428.39;1775255;80;20933;-41
2021/09/20 00:31:57;;;;;;;2.05;1.10;;;;;;;9.52;77.05;98438.66;1746873;80;20993;-41
2021/09/20 00:34:24;;;;;;;1.50;0.90;;;;;;;9.52;77.10;98432.68;1761478;81;20946;-41
2021/09/20 00:36:51;;;;;;;1.25;1.10;;;;;;;9.53;76.94;98433.46;1766230;80;21329;-41
2021/09/20 00:39:17;;;;;;;2.58;1.05;;;;;;;9.54;77.09;98432.28;1740584;80;21049;-41
2021/09/20 00:41:46;;;;;;;1.45;1.05;;;;;;;9.58;77.07;98433.11;1713488;82;20985;-41
2021/09/20 00:44:14;;;;;;;1.10;1.00;;;;;;;9.60;76.88;98430.80;1737045;80;21220;-41
2021/09/20 00:46:41;;;;;;;1.20;0.82;;;;;;;9.57;76.91;98438.32;1742906;80;21006;-41
2021/09/20 00:49:07;;;;;;;1.42;0.90;;;;;;;9.51;76.81;98429.77;1691987;83;21852;-41
2021/09/20 00:51:34;;;;;;;2.35;0.85;;;;;;;9.52;76.86;98431.91;1713291;83;21571;-41
2021/09/20 00:54:00;;;;;;;2.60;0.95;;;;;;;9.51;77.08;98432.47;1741221;80;21828;-41
2021/09/20 00:56:27;;;;;;;2.05;0.80;;;;;;;9.51;77.09;98433.05;1753238;80;21012;-41
2021/09/20 00:58:55;;;;;;;1.25;0.80;;;;;;;9.51;77.04;98437.10;1719639;83;21536;-41
2021/09/20 01:01:22;;;;;;;1.47;0.85;;;;;;;9.52;76.99;98434.61;1717313;83;21031;-41
2021/09/20 01:03:49;;;;;;;2.62;0.80;;;;;;;9.54;76.86;98439.05;1720683;83;21116;-41
2021/09/20 01:06:15;;;;;;;1.95;1.17;;;;;;;9.54;76.81;98433.64;1717958;83;21084;-41
2021/09/20 01:08:42;;;;;;;2.62;1.00;;;;;;;9.54;76.80;98429.58;1698399;83;21035;-41
2021/09/20 01:11:08;;;;;;;3.65;0.80;;;;;;;9.53;76.82;98433.46;1679663;83;21041;-41
2021/09/20 01:13:37;;;;;;;0.93;0.72;;;;;;;9.49;76.91;98429.92;1717014;83;20972;-41
2021/09/20 01:16:04;;;;;;;1.42;0.95;;;;;;;9.45;77.14;98438.59;1720528;83;21499;-41
2021/09/20 01:18:33;;;;;;;0.98;0.80;;;;;;;9.48;77.18;98427.04;1694943;83;20964;-41
2021/09/20 01:20:59;;;;;;;2.50;0.90;;;;;;;9.49;77.35;98427.22;1702550;83;21060;-41
2021/09/20 01:23:27;;;;;;;0.80;0.70;;;;;;;9.47;77.33;98439.01;1696512;83;20968;-41
2021/09/20 01:25:54;;;;;;;0.93;0.80;;;;;;;9.47;77.35;98430.32;1691546;84;21028;-41
2021/09/20 01:28:21;;;;;;;3.33;1.00;;;;;;;9.54;77.34;98433.64;1691690;83;21097;-41
2021/09/20 01:30:47;;;;;;;4.17;0.90;;;;;;;9.60;77.07;98430.80;1704998;83;21145;-41
2021/09/20 01:33:14;;;;;;;2.83;0.90;;;;;;;9.59;76.91;98433.30;1716085;83;21008;-41
2021/09/20 01:35:40;;;;;;;1.20;0.70;;;;;;;9.56;76.84;98431.34;1719449;83;21015;-41
2021/09/20 01:38:07;;;;;;;2.30;0.80;;;;;;;9.55;76.98;98423.80;1720855;83;21091;-41
2021/09/20 01:40:33;;;;;;;2.42;0.95;;;;;;;9.57;76.83;98434.26;1693444;83;21037;-41
2021/09/20 01:43:00;;;;;;;1.05;0.72;;;;;;;9.53;76.97;98428.05;1702745;83;21167;-41
2021/09/20 01:45:26;;;;;;;2.42;0.90;;;;;;;9.51;77.29;98427.06;1713792;83;21607;-41
2021/09/20 01:47:54;;;;;;;3.02;1.00;;;;;;;9.51;77.25;98430.34;1694004;83;21043;-41
2021/09/20 01:50:20;;;;;;;2.70;1.00;;;;;;;9.49;77.24;98428.00;1694699;83;21519;-41
2021/09/20 01:52:47;;;;;;;2.77;1.02;;;;;;;9.47;77.21;98424.91;1695131;83;21102;-41
2021/09/20 01:55:16;;;;;;;2.45;1.37;;;;;;;9.44;77.34;98424.28;1707302;83;21000;-41
2021/09/20 01:57:42;;;;;;;1.82;0.93;;;;;;;9.42;77.34;98437.42;1686805;83;21602;-41
2021/09/20 02:00:11;;;;;;;1.75;1.00;;;;;;;9.38;77.50;98429.08;1766555;80;20980;-41
2021/09/20 02:02:39;;;;;;;2.62;0.90;;;;;;;9.34;77.68;98437.17;1753599;80;20969;-41
2021/09/20 02:05:07;;;;;;;2.10;0.90;;;;;;;9.34;77.73;98433.69;1767021;80;21060;-41
2021/09/20 02:07:35;;;;;;;0.95;0.72;;;;;;;9.34;77.89;98434.47;1728377;80;21005;-41
2021/09/20 02:10:03;;;;;;;2.22;1.25;;;;;;;9.34;77.91;98434.47;1749034;80;21535;-41
2021/09/20 02:12:31;;;;;;;1.65;0.90;;;;;;;9.39;78.02;98430.64;1750957;82;20996;-41
2021/09/20 02:14:58;;;;;;;2.02;1.10;;;;;;;9.40;77.78;98420.78;1779501;80;21036;-41
2021/09/20 02:17:26;;;;;;;1.52;0.90;;;;;;;9.40;77.85;98440.28;1744165;80;21335;-41
2021/09/20 02:19:53;;;;;;;1.30;0.90;;;;;;;9.38;78.02;98427.73;1752811;80;21119;-41
2021/09/20 02:22:21;;;;;;;2.92;1.12;;;;;;;9.38;78.12;98435.27;1746239;80;20977;-41
2021/09/20 02:24:47;;;;;;;2.20;1.20;;;;;;;9.42;77.93;98423.90;1753340;80;20969;-41
2021/09/20 02:27:15;;;;;;;1.50;0.85;;;;;;;9.43;77.77;98426.03;1772742;80;21310;-41
2021/09/20 02:29:43;;;;;;;1.98;1.10;;;;;;;9.41;77.95;98429.67;1780944;80;20994;-41
2021/09/20 02:32:11;;;;;;;1.90;1.20;;;;;;;9.37;77.97;98432.36;1765851;80;20973;-41
2021/09/20 02:34:40;;;;;;;1.80;1.12;;;;;;;9.34;77.92;98435.82;1767409;80;20953;-41
2021/09/20 02:37:06;;;;;;;3.22;0.85;;;;;;;9.32;78.12;98431.34;1782723;80;21016;-41
2021/09/20 02:39:32;;;;;;;2.70;1.10;;;;;;;9.33;77.97;98436.19;1755729;80;21032;-41
2021/09/20 02:41:59;;;;;;;1.15;0.95;;;;;;;9.31;77.91;98440.61;1714683;83;21076;-41
2021/09/20 02:44:26;;;;;;;2.77;1.10;;;;;;;9.30;77.97;98436.34;1753710;80;21911;-41
2021/09/20 02:46:52;;;;;;;1.85;1.02;;;;;;;9.30;78.05;98436.91;1757969;80;21030;-41
2021/09/20 02:49:19;;;;;;;7.55;1.55;;;;;;;9.28;77.86;98444.64;1761883;80;21021;-41
2021/09/20 02:51:47;;;;;;;3.33;1.07;;;;;;;9.25;77.86;98437.25;1781860;80;21008;-41
2021/09/20 02:54:14;;;;;;;2.45;1.00;;;;;;;9.25;78.15;98444.01;1766986;80;21032;-41
2021/09/20 02:56:44;;;;;;;1.72;1.20;;;;;;;9.24;78.11;98441.13;1745469;80;21165;-41
2021/09/20 02:59:10;;;;;;;1.40;1.10;;;;;;;9.22;78.19;98440.14;1700933;83;21033;-41
2021/09/20 03:01:37;;;;;;;2.45;1.52;;;;;;;9.22;78.26;98436.66;1742790;80;20957;-41
2021/09/20 03:04:04;;;;;;;2.47;1.00;;;;;;;9.22;78.25;98432.59;1742999;81;21803;-41
2021/09/20 03:06:30;;;;;;;1.22;1.07;;;;;;;9.20;78.37;98439.72;1743003;82;21084;-41
2021/09/20 03:08:59;;;;;;;5.47;1.22;;;;;;;9.19;78.33;98434.70;1715704;80;21005;-41
2021/09/20 03:11:26;;;;;;;1.65;1.20;;;;;;;9.20;78.52;98438.97;1718006;80;21089;-41
2021/09/20 03:13:53;;;;;;;1.45;1.20;;;;;;;9.22;78.57;98437.44;1678786;85;20905;-41
2021/09/20 03:16:20;;;;;;;1.52;1.30;;;;;;;9.22;78.39;98436.08;1683593;84;21610;-41
2021/09/20 03:18:47;;;;;;;2.58;1.30;;;;;;;9.23;78.37;98435.51;1753972;80;21083;-41
2021/09/20 03:21:19;;;;;;;1.37;1.22;;;;;;;9.24;78.36;98437.85;1754470;80;21041;-41
2021/09/20 03:23:43;;;;;;;6.67;1.57;;;;;;;9.23;78.25;98439.56;1739593;80;20923;-41
2021/09/20 03:26:10;;;;;;;1.55;1.30;;;;;;;9.24;78.33;98434.36;1707316;83;20953;-41
2021/09/20 03:28:37;;;;;;;2.05;1.25;;;;;;;8.93;78.33;98386.38;1698556;83;21053;-41
2021/09/20 03:31:04;;;;;;;2.67;1.30;;;;;;;9.25;78.15;98440.73;1695938;83;21043;-41
2021/09/20 03:33:32;;;;;;;2.15;1.70;;;;;;;9.26;78.28;98436.11;1697026;84;20961;-41
2021/09/20 03:36:00;;;;;;;1.10;1.02;;;;;;;9.25;77.91;98438.60;1742986;80;21013;-41
2021/09/20 03:38:27;;;;;;;5.75;1.50;;;;;;;9.26;78.13;98444.22;1740853;80;21085;-41
2021/09/20 03:40:54;;;;;;;1.40;1.30;;;;;;;9.23;78.07;98438.22;1727852;80;21009;-41
2021/09/20 03:43:21;;;;;;;2.70;1.37;;;;;;;9.21;78.22;98443.20;1687897;83;21528;-41
2021/09/20 03:45:49;;;;;;;3.42;1.50;;;;;;;9.20;78.60;98444.38;1713275;83;20973;-41
2021/09/20 03:48:15;;;;;;;1.80;1.40;;;;;;;9.22;78.51;98448.82;1719121;80;21085;-41
2021/09/20 03:50:42;;;;;;;1.90;1.32;;;;;;;9.20;78.39;98445.73;1738464;80;21036;-41
2021/09/20 03:53:08;;;;;;;3.83;1.57;;;;;;;9.17;78.29;98455.34;1753405;80;21579;-41
2021/09/20 03:55:36;;;;;;;2.12;1.62;;;;;;;9.18;78.42;98460.19;1750858;80;21036;-41
2021/09/20 03:58:02;;;;;;;1.50;1.40;;;;;;;9.18;78.43;98457.48;1702996;83;21536;-41
2021/09/20 04:00:31;;;;;;;1.92;1.35;;;;;;;9.15;78.73;98457.06;1700072;83;20997;-41
2021/09/20 04:02:57;;;;;;;2.83;1.70;;;;;;;9.16;78.74;98461.33;1719354;83;20949;-41
2021/09/20 04:05:24;;;;;;;1.60;1.47;;;;;;;9.17;78.72;98459.41;1719163;82;20993;-41
2021/09/20 04:07:50;;;;;;;2.67;1.62;;;;;;;9.16;78.63;98465.38;1713389;82;21037;-41
2021/09/20 04:10:17;;;;;;;2.85;1.42;;;;;;;9.16;78.67;98468.66;1678562;83;21161;-41
2021/09/20 04:12:44;;;;;;;3.67;1.50;;;;;;;9.23;78.74;98472.80;1688180;82;21061;-41
2021/09/20 04:15:11;;;;;;;2.95;1.57;;;;;;;9.28;78.40;98470.33;1681775;82;21097;-41
2021/09/20 04:17:40;;;;;;;1.85;1.30;;;;;;;9.29;78.31;98474.59;1698403;84;20934;-41
2021/09/20 04:20:08;;;;;;;3.10;1.20;;;;;;;9.28;78.26;98477.09;1708352;82;21064;-41
2021/09/20 04:22:34;;;;;;;4.45;1.30;;;;;;;9.27;78.47;98489.84;1702520;82;21179;-41
2021/09/20 04:25:01;;;;;;;2.87;1.60;;;;;;;9.32;78.40;98487.36;1704632;83;21025;-41
2021/09/20 04:27:28;;;;;;;1.60;1.50;;;;;;;9.36;78.18;98482.77;1710608;82;21487;-41
2021/09/20 04:29:55;;;;;;;2.37;1.30;;;;;;;9.37;78.36;98482.97;1701757;82;21029;-41
2021/09/20 04:32:24;;;;;;;2.45;1.40;;;;;;;9.41;77.94;98490.54;1718337;82;21026;-41
2021/09/20 04:34:51;;;;;;;3.83;1.50;;;;;;;9.46;78.01;98490.20;1710193;83;21164;-41
2021/09/20 04:37:18;;;;;;;2.20;1.60;;;;;;;9.48;77.95;98493.33;1709932;83;21014;-41
2021/09/20 04:39:46;;;;;;;3.40;1.75;;;;;;;9.46;77.74;98494.27;1709878;83;21587;-41
2021/09/20 04:42:13;;;;;;;1.65;1.50;;;;;;;9.45;77.95;98498.11;1708815;83;21419;-41
2021/09/20 04:44:40;;;;;;;1.45;1.17;;;;;;;9.44;77.77;98493.88;1711915;83;21108;-41
2021/09/20 04:47:07;;;;;;;1.40;1.30;;;;;;;9.42;77.94;98502.92;1709705;83;21857;-41
2021/09/20 04:49:34;;;;;;;2.70;1.30;;;;;;;9.43;78.07;98495.02;1712012;83;21028;-41
2021/09/20 04:52:00;;;;;;;5.20;1.40;;;;;;;9.42;77.99;98502.92;1690215;83;21575;-41
2021/09/20 04:54:28;;;;;;;2.42;1.30;;;;;;;9.42;78.04;98498.87;1722019;83;21045;-41
2021/09/20 04:56:55;;;;;;;2.17;1.52;;;;;;;9.45;78.04;98505.66;1726106;82;21017;-41
2021/09/20 04:59:21;;;;;;;2.98;1.80;;;;;;;9.48;77.95;98502.80;1716743;82;21586;-41
2021/09/20 05:01:48;;;;;;;2.52;1.80;;;;;;;9.47;77.91;98499.87;1719565;83;21033;-41
2021/09/20 05:04:15;;;;;;;3.12;1.60;;;;;;;9.47;78.05;98502.59;1720408;82;20949;-41
2021/09/20 05:06:42;;;;;;;2.08;1.60;;;;;;;9.52;78.13;98510.36;1691508;84;21018;-41
2021/09/20 05:09:10;;;;;;;3.35;1.35;;;;;;;9.56;77.77;98509.24;1691769;84;21523;-41
2021/09/20 05:11:38;;;;;;;2.47;1.37;;;;;;;9.60;77.78;98510.62;1691542;84;21092;-41
2021/09/20 05:14:06;;;;;;;2.47;1.67;;;;;;;9.63;77.65;98509.11;1718675;83;21554;-41
2021/09/20 05:16:33;;;;;;;1.67;1.30;;;;;;;9.61;77.57;98514.89;1720171;82;21025;-41
2021/09/20 05:19:01;;;;;;;2.87;1.98;;;;;;;9.60;77.76;98514.68;1720657;82;21034;-41
2021/09/20 05:21:28;;;;;;;2.98;1.70;;;;;;;9.66;77.67;98515.91;1717005;82;21017;-41
2021/09/20 05:23:55;;;;;;;1.60;1.37;;;;;;;9.72;77.60;98515.77;1720992;82;21095;-41
2021/09/20 05:26:22;;;;;;;2.00;1.65;;;;;;;9.75;77.50;98523.13;1691838;82;20996;-41
2021/09/20 05:28:49;;;;;;;1.60;1.50;;;;;;;9.73;77.59;98524.06;1691514;84;21128;-41
2021/09/20 05:31:16;;;;;;;2.37;1.30;;;;;;;9.70;77.38;98521.34;1691697;84;21515;-41
2021/09/20 05:33:42;;;;;;;2.12;1.40;;;;;;;9.73;77.56;98521.96;1691813;84;21045;-41
2021/09/20 05:36:10;;;;;;;4.17;1.50;;;;;;;9.75;77.46;98524.48;1723010;82;21330;-41
2021/09/20 05:38:37;;;;;;;2.20;1.50;;;;;;;9.80;77.44;98521.44;1731645;82;20978;-41
2021/09/20 05:41:03;;;;;;;1.72;1.30;;;;;;;9.83;77.50;98530.72;1750963;82;21005;-41
2021/09/20 05:43:30;;;;;;;1.60;1.50;;;;;;;9.81;77.31;98539.23;1734126;82;21484;-41
2021/09/20 05:45:57;;;;;;;2.33;1.40;;;;;;;9.86;77.28;98536.19;1720611;82;21006;-41
2021/09/20 05:48:23;;;;;;;2.30;1.30;;;;;;;9.91;77.24;98547.25;1724584;82;21114;-41
2021/09/20 05:50:51;;;;;;;1.75;1.40;;;;;;;9.90;77.33;98541.62;1717435;82;21068;-41
2021/09/20 05:53:18;;;;;;;2.05;1.35;;;;;;;9.93;77.30;98547.06;1691969;84;21554;-41
2021/09/20 05:55:44;;;;;;;2.95;1.30;;;;;;;9.96;77.07;98547.69;1720500;82;21114;-41
2021/09/20 05:58:11;;;;;;;1.60;1.25;;;;;;;10.01;77.08;98551.41;1699688;84;21046;-41
2021/09/20 06:00:38;;;;;;;5.70;1.45;;;;;;;10.08;77.18;98559.36;1699612;84;21142;-41
2021/09/20 06:03:05;;;;;;;2.12;1.32;;;;;;;10.09;77.25;98558.99;1682559;84;21581;-41
2021/09/20 06:05:32;;;;;;;1.77;1.40;;;;;;;10.11;76.91;98558.63;1684528;84;21010;-41
2021/09/20 06:08:00;;;;;;;1.85;1.22;;;;;;;10.14;76.98;98561.93;1695481;83;20998;-41
2021/09/20 06:10:28;;;;;;;2.05;1.25;;;;;;;10.18;77.04;98568.17;1676408;83;20994;-41
2021/09/20 06:12:55;;;;;;;1.47;1.37;;;;;;;10.21;76.50;98561.45;1699678;83;21154;-41
2021/09/20 06:15:21;;;;;;;2.58;1.40;;;;;;;10.19;76.73;98568.38;1700493;83;21493;-41
2021/09/20 06:17:50;;;;;;;1.65;1.32;;;;;;;10.18;76.68;98570.88;1686770;83;21527;-41
2021/09/20 06:20:18;;;;;;;2.25;1.47;;;;;;;10.18;76.51;98578.44;1747360;80;21013;-41
2021/09/20 06:22:46;;;;;;;2.27;1.45;;;;;;;10.21;76.68;98582.34;1721688;82;21104;-41
2021/09/20 06:25:13;;;;;;;3.45;1.85;;;;;;;10.18;76.86;98577.66;1766732;80;21208;-41
2021/09/20 06:27:40;;;;;;;2.22;1.45;;;;;;;10.18;77.00;98581.72;1767425;80;21008;-41
2021/09/20 06:30:08;;;;;;;2.30;1.55;;;;;;;10.20;77.19;98591.61;1768861;81;20993;-41
2021/09/20 06:32:35;;;;;;;1.95;1.50;;;;;;;10.20;77.01;98587.55;1769647;80;21004;-41
2021/09/20 06:35:02;;;;;;;2.92;1.55;;;;;;;10.17;77.30;98591.77;1757883;80;21566;-41
2021/09/20 06:37:29;;;;;;;3.05;1.32;;;;;;;10.18;77.29;98589.84;1732554;80;21963;-41
2021/09/20 06:39:55;;;;;;;1.70;1.50;;;;;;;10.23;77.50;98592.20;1753137;80;21566;-41
2021/09/20 06:42:22;;;;;;;2.05;1.40;;;;;;;10.26;77.20;98594.18;1748574;80;21002;-41
2021/09/20 06:44:50;;;;;;;2.05;1.75;;;;;;;10.22;76.90;98596.06;1748010;81;21340;-41
2021/09/20 06:47:19;;;;;;;3.72;1.50;;;;;;;10.19;77.13;98598.95;1757147;80;21036;-42
2021/09/20 06:49:46;;;;;;;3.20;1.47;;;;;;;10.20;77.35;98601.88;1747560;80;21101;-41
2021/09/20 06:52:13;;;;;;;1.62;1.52;;;;;;;10.21;77.26;98599.95;1702426;84;20994;-41
2021/09/20 06:54:39;;;;;;;1.90;1.45;;;;;;;10.14;77.36;98601.20;1726127;82;20949;-41
2021/09/20 06:57:06;;;;;;;1.77;1.40;;;;;;;10.12;77.58;98598.10;1713616;83;21043;-41
2021/09/20 06:59:32;;;;;;;3.52;1.35;;;;;;;10.19;77.86;98600.89;1739189;80;21652;-41
2021/09/20 07:01:59;;;;;;;2.05;1.50;;;;;;;10.25;77.82;98603.45;1752868;81;21144;-41
2021/09/20 07:04:28;;;;;;;5.33;1.62;;;;;;;10.29;77.76;98608.32;1764505;80;20941;-41
2021/09/20 07:06:54;;;;;;;2.50;1.50;;;;;;;10.31;77.40;98614.91;1767029;80;21713;-41
2021/09/20 07:09:21;;;;;;;2.50;1.70;;;;;;;10.34;77.26;98614.75;1738500;80;21065;-41
2021/09/20 07:11:48;;;;;;;3.35;1.77;;;;;;;10.38;77.36;98621.75;1726797;80;21081;-41
2021/09/20 07:14:14;;;;;;;3.60;1.60;;;;;;;10.42;77.50;98618.48;1730568;80;21104;-40
2021/09/20 07:16:41;;;;;;;12.65;2.22;;;;;;;10.45;77.34;98624.52;1745074;80;21504;-42
2021/09/20 07:19:08;;;;;;;2.05;1.50;;;;;;;10.12;77.12;98570.42;1743087;81;20932;-42
2021/09/20 07:21:35;;;;;;;4.00;1.92;;;;;;;10.50;77.24;98623.39;1703941;83;20990;-41
2021/09/20 07:24:01;;;;;;;2.65;1.62;;;;;;;10.54;77.27;98626.91;1757156;80;21067;-42
2021/09/20 07:26:30;;;;;;;2.60;1.70;;;;;;;10.56;76.95;98630.00;1776310;80;21554;-41
2021/09/20 07:28:57;;;;;;;3.50;1.87;;;;;;;10.57;77.22;98634.27;1731556;82;20943;-41
2021/09/20 07:31:24;;;;;;;2.15;1.70;;;;;;;10.65;77.41;98635.86;1727520;81;21752;-42
2021/09/20 07:33:51;;;;;;;2.22;1.40;;;;;;;10.73;77.16;98636.70;1728605;81;21041;-42
2021/09/20 07:36:17;;;;;;;2.30;1.60;;;;;;;10.78;77.15;98629.58;1742941;80;21026;-42
2021/09/20 07:38:44;;;;;;;3.20;1.50;;;;;;;10.82;77.05;98636.58;1729454;80;21314;-42
2021/09/20 07:41:10;;;;;;;2.40;1.57;;;;;;;10.86;77.06;98637.95;1706450;83;21599;-42
2021/09/20 07:43:38;;;;;;;3.17;1.40;;;;;;;10.97;76.96;98640.72;1741876;80;20991;-42
2021/09/20 07:46:05;;;;;;;3.10;1.22;;;;;;;11.08;76.31;98648.34;1748099;80;21032;-42
2021/09/20 07:48:32;;;;;;;2.75;1.30;;;;;;;11.14;76.28;98648.16;1748868;81;21511;-42
2021/09/20 07:50:58;;;;;;;2.20;1.60;;;;;;;11.14;75.91;98650.30;1701405;84;21148;-42
2021/09/20 07:53:24;;;;;;;2.67;1.37;;;;;;;11.15;75.63;98645.08;1683755;83;21003;-42
2021/09/20 07:55:51;;;;;;;1.57;1.12;;;;;;;11.18;75.58;98650.34;1699926;83;21021;-43
2021/09/20 07:58:17;;;;;;;4.12;1.50;;;;;;;11.23;75.71;98643.20;1681684;85;21098;-42
2021/09/20 08:00:44;;;;;;;2.85;1.60;;;;;;;11.26;75.61;98645.14;1681990;83;21056;-42
2021/09/20 08:03:11;;;;;;;3.80;1.27;;;;;;;11.25;75.36;98638.93;1688723;83;21205;-42
2021/09/20 08:05:45;;;;;;;1.60;1.25;;;;;;;11.28;75.37;98640.88;1749289;80;20954;-42
2021/09/20 08:08:11;;;;;;;2.45;1.22;;;;;;;11.32;74.68;98650.41;1720572;82;21853;-42
2021/09/20 08:11:31;;;;;;;2.80;1.65;;;;;;;11.36;74.67;98643.63;1829573;78;22691;-42
2021/09/20 08:14:00;;;;;;;1.35;1.20;;;;;;;11.27;74.94;98652.91;1787221;79;21038;-42
2021/09/20 08:16:26;;;;;;;2.62;1.37;;;;;;;11.34;75.33;98652.14;1793871;79;21152;-42
2021/09/20 08:18:52;;;;;;;2.42;1.60;;;;;;;11.44;75.20;98662.84;1806083;79;21472;-42
2021/09/20 08:21:19;;;;;;;2.80;1.32;;;;;;;11.46;74.68;98664.03;1804764;79;20961;-43
2021/09/20 08:23:47;;;;;;;2.12;1.50;;;;;;;11.45;74.78;98661.11;1784671;78;21024;-43
2021/09/20 08:26:14;;;;;;;2.15;1.20;;;;;;;11.44;75.11;98660.91;1831890;78;21519;-43
2021/09/20 08:28:41;;;;;;;1.45;1.30;;;;;;;11.53;75.00;98663.27;1806199;78;22044;-43
2021/09/20 08:31:08;;;;;;;1.77;1.30;;;;;;;11.61;73.96;98667.58;1792236;79;20941;-43
2021/09/20 08:33:35;;;;;;;2.45;1.32;;;;;;;11.61;73.90;98667.00;1771221;81;20969;-43
2021/09/20 08:36:02;;;;;;;5.37;1.30;;;;;;;11.64;74.16;98674.37;1725385;82;20934;-42
2021/09/20 08:38:28;;;;;;;2.10;0.90;;;;;;;11.64;73.72;98667.58;1731592;82;21476;-42
2021/09/20 08:40:55;;;;;;;2.22;1.20;;;;;;;11.71;73.94;98670.91;1723035;82;21170;-42
2021/09/20 08:43:22;;;;;;;1.60;1.25;;;;;;;11.76;73.69;98676.00;1700363;82;21044;-42
2021/09/20 08:45:49;;;;;;;1.87;1.50;;;;;;;11.75;73.81;98679.30;1734046;82;21018;-42
2021/09/20 08:48:16;;;;;;;1.27;1.17;;;;;;;11.78;73.99;98672.30;1755021;79;21089;-42
2021/09/20 08:50:42;;;;;;;1.57;1.27;;;;;;;11.84;73.88;98675.43;1758841;80;21009;-42
2021/09/20 08:53:10;;;;;;;2.55;1.20;;;;;;;11.93;73.28;98671.77;1742582;81;21176;-42
2021/09/20 08:55:37;;;;;;;1.92;1.07;;;;;;;12.00;73.31;98672.57;1741338;82;20953;-42
2021/09/20 08:58:04;;;;;;;2.12;1.57;;;;;;;12.03;73.54;98671.02;1735572;81;20974;-42
2021/09/20 09:00:32;;;;;;;1.67;1.42;;;;;;;12.06;73.68;98675.09;1716314;82;20994;-42
2021/09/20 09:03:02;;;;;;;1.75;1.20;;;;;;;12.14;73.47;98679.97;1731614;82;21116;-42
2021/09/20 09:05:31;;;;;;;1.47;1.27;;;;;;;12.26;73.48;98682.30;1740939;81;21154;-42
2021/09/20 09:08:03;;;;;;;2.40;1.05;;;;;;;12.36;73.35;98681.53;1722523;82;21093;-42
2021/09/20 09:10:34;;;;;;;1.12;1.00;;;;;;;12.42;72.06;98686.78;1728105;82;21038;-42
2021/09/20 09:13:05;;;;;;;2.77;0.95;;;;;;;12.46;72.04;98701.16;1715057;82;21033;-42
2021/09/20 09:15:32;;;;;;;0.80;0.80;;;;;;;12.44;70.90;98700.75;1719414;81;21017;-42
2021/09/20 09:18:01;;;;;;;1.22;0.80;;;;;;;12.43;70.94;98702.52;1728309;82;21109;-42
2021/09/20 09:20:34;;;;;;;0.90;0.78;;;;;;;12.41;71.13;98703.48;1785283;78;21020;-42
2021/09/20 09:23:04;;;;;;;2.27;0.90;;;;;;;12.39;71.55;98703.85;1778334;79;21661;-42
2021/09/20 09:25:45;;;;;;;1.50;1.20;;;;;;;12.45;72.31;98707.75;1787409;79;20956;-43
2021/09/20 09:28:26;;;;;;;1.20;0.93;;;;;;;12.57;71.83;98706.02;1772661;79;21017;-43
2021/09/20 09:30:59;;;;;;;2.67;1.07;;;;;;;12.72;70.76;98701.36;1766117;81;21122;-42
2021/09/20 09:33:38;;;;;;;1.40;0.90;;;;;;;12.77;69.95;98706.99;1787952;79;20954;-42
2021/09/20 09:36:07;;;;;;;1.32;0.88;;;;;;;12.72;70.17;98714.96;1799128;79;20981;-42
2021/09/20 09:38:34;;;;;;;0.93;0.80;;;;;;;12.67;70.14;98722.73;1799791;79;21053;-42
2021/09/20 09:41:05;;;;;;;1.52;0.68;;;;;;;12.63;70.44;98721.37;1799854;79;20982;-43
2021/09/20 09:43:35;;;;;;;1.60;0.80;;;;;;;12.68;70.36;98715.55;1799684;79;21109;-43
2021/09/20 09:46:24;;;;;;;2.42;0.75;;;;;;;12.79;70.90;98719.02;1799996;79;21010;-43
2021/09/20 09:48:54;;;;;;;1.60;0.90;;;;;;;12.85;70.37;98713.39;1774256;79;20962;-42
2021/09/20 09:51:21;;;;;;;1.45;0.62;;;;;;;12.82;69.78;98715.55;1789373;79;20930;-43
2021/09/20 09:53:49;;;;;;;1.20;0.70;;;;;;;12.83;69.67;98721.77;1801444;78;21037;-42
2021/09/20 09:56:25;;;;;;;1.17;0.80;;;;;;;12.85;69.26;98718.05;1800068;78;21121;-42
2021/09/20 09:59:03;;;;;;;1.00;0.60;;;;;;;12.88;69.71;98716.68;1799545;78;21528;-42
2021/09/20 10:01:35;;;;;;;0.93;0.88;;;;;;;12.90;69.22;98724.46;1799554;79;20974;-42
2021/09/20 10:04:15;;;;;;;1.20;0.80;;;;;;;12.91;69.02;98730.11;1799664;79;20914;-43
2021/09/20 10:06:48;;;;;;;0.80;0.70;;;;;;;12.90;68.73;98731.27;1799781;79;21049;-42
2021/09/20 10:09:28;;;;;;;1.00;0.68;;;;;;;12.92;68.95;98734.39;1799749;79;21119;-43
2021/09/20 10:11:58;;;;;;;0.78;0.68;;;;;;;12.88;68.44;98733.59;1807397;79;20882;-42
2021/09/20 10:14:27;;;;;;;1.05;0.70;;;;;;;12.79;68.92;98735.92;1808122;79;20925;-42
2021/09/20 10:16:57;;;;;;;0.60;0.60;;;;;;;12.74;69.72;98741.75;1808174;79;20953;-43
2021/09/20 10:19:26;;;;;;;1.05;0.78;;;;;;;12.76;70.08;98747.02;1808318;79;21524;-42
2021/09/20 10:21:54;;;;;;;1.10;0.60;;;;;;;12.87;70.16;98750.52;1808250;78;21491;-42
2021/09/20 10:24:23;;;;;;;1.07;0.65;;;;;;;12.98;69.89;98743.11;1808886;77;20886;-42
2021/09/20 10:26:50;;;;;;;0.50;0.50;;;;;;;13.02;69.67;98748.56;1808204;79;20961;-42
2021/09/20 10:29:18;;;;;;;0.90;0.82;;;;;;;13.08;69.24;98748.34;1808362;77;21012;-42
2021/09/20 10:31:46;;;;;;;0.93;0.70;;;;;;;13.11;68.65;98750.34;1808860;79;21036;-42
2021/09/20 10:34:24;;;;;;;0.87;0.80;;;;;;;13.30;68.06;98749.14;1760143;81;21798;-42
2021/09/20 10:37:07;;;;;;;0.73;0.70;;;;;;;13.30;68.06;98749.14;1760219;80;20982;-42
2021/09/20 10:40:01;;;;;;;6.25;0.80;;;;;;;13.41;68.37;98750.65;1760075;81;20930;-42
2021/09/20 10:42:48;;;;;;;1.15;0.70;;;;;;;13.48;68.06;98747.92;1710033;83;20977;-42
2021/09/20 10:45:40;;;;;;;1.30;0.90;;;;;;;13.49;67.64;98738.59;1721353;83;20981;-42
2021/09/20 10:48:27;;;;;;;0.70;0.70;;;;;;;13.44;66.81;98749.88;1712074;83;21136;-42
2021/09/20 10:51:15;;;;;;;1.05;0.80;;;;;;;13.43;67.35;98759.80;1729599;82;21259;-42
2021/09/20 10:53:42;;;;;;;1.32;0.82;;;;;;;13.40;67.24;98760.59;1751032;82;20969;-42
2021/09/20 10:56:16;;;;;;;0.70;0.70;;;;;;;13.31;67.79;98765.05;1751073;81;20960;-43
2021/09/20 10:58:54;;;;;;;1.60;0.80;;;;;;;13.24;67.87;98763.73;1750262;82;21033;-42
2021/09/20 11:01:30;;;;;;;1.23;0.63;;;;;;;13.17;67.62;98762.36;1711354;82;21175;-42
2021/09/20 11:04:06;;;;;;;3.20;0.88;;;;;;;13.11;67.34;98773.47;1721025;83;21535;-43
2021/09/20 11:06:36;;;;;;;1.10;0.72;;;;;;;13.07;68.17;98769.92;1692570;83;21001;-42
2021/09/20 11:09:12;;;;;;;0.60;0.60;;;;;;;12.99;69.26;98767.02;1721283;83;21044;-42
2021/09/20 11:11:42;;;;;;;1.37;0.80;;;;;;;12.93;69.53;98772.64;1718687;82;21096;-42
2021/09/20 11:14:15;;;;;;;0.80;0.70;;;;;;;12.88;69.80;98763.52;1716410;82;20980;-42
2021/09/20 11:17:22;;;;;;;1.57;0.78;;;;;;;12.87;69.98;98768.20;1716131;83;20981;-43
2021/09/20 11:19:54;;;;;;;1.20;0.70;;;;;;;12.92;69.92;98771.89;1716279;83;21927;-42
2021/09/20 11:22:29;;;;;;;0.85;0.72;;;;;;;12.98;70.03;98779.06;1716245;83;20997;-42
2021/09/20 11:25:03;;;;;;;0.70;0.70;;;;;;;12.97;70.13;98784.33;1716224;83;20969;-42
2021/09/20 11:27:41;;;;;;;1.62;0.45;;;;;;;12.83;70.41;98789.16;1716494;83;21508;-42
2021/09/20 11:30:21;;;;;;;1.62;0.60;;;;;;;12.68;70.96;98784.90;1689040;83;21005;-42
2021/09/20 11:32:57;;;;;;;0.62;0.62;;;;;;;12.61;71.44;98785.66;1716385;83;21606;-42
2021/09/20 11:35:25;;;;;;;0.70;0.55;;;;;;;12.51;71.60;98783.70;1710389;83;21021;-42
2021/09/20 11:37:53;;;;;;;0.57;0.57;;;;;;;12.42;72.25;98788.73;1716431;83;21037;-42
2021/09/20 11:40:25;;;;;;;1.37;0.85;;;;;;;12.36;72.89;98792.98;1716309;83;21139;-42
2021/09/20 11:42:55;;;;;;;0.62;0.60;;;;;;;12.34;73.00;98785.81;1735695;82;21013;-42
2021/09/20 11:45:26;;;;;;;0.60;0.60;;;;;;;12.41;73.00;98787.17;1742174;81;21080;-42